createdAt,value
2018-12-16T00:00:39.600Z,4.60
2018-12-16T00:03:13.917Z,4.60
2018-12-16T00:05:44.834Z,4.50
2018-12-16T00:08:13.820Z,4.60
2018-12-16T00:10:43.468Z,4.50
2018-12-16T00:13:12.296Z,4.50
2018-12-16T00:15:42.177Z,4.50
2018-12-16T00:18:12.208Z,4.60
2018-12-16T00:20:41.409Z,4.50
2018-12-16T00:23:11.171Z,4.50
2018-12-16T00:25:40.964Z,4.40
2018-12-16T00:28:09.814Z,4.40
2018-12-16T00:30:39.068Z,4.40
2018-12-16T00:33:09.456Z,4.40
2018-12-16T00:35:38.331Z,4.40
2018-12-16T00:38:08.415Z,4.40
2018-12-16T00:40:39.393Z,4.40
2018-12-16T00:43:08.272Z,4.40
2018-12-16T00:45:37.139Z,4.40
2018-12-16T00:48:06.015Z,4.40
2018-12-16T00:50:34.905Z,4.40
2018-12-16T00:53:03.725Z,4.50
2018-12-16T00:55:32.552Z,4.50
2018-12-16T00:58:01.382Z,4.50
2018-12-16T01:00:30.218Z,4.50
2018-12-16T01:02:59.063Z,4.50
2018-12-16T01:05:27.951Z,4.50
2018-12-16T01:07:56.778Z,4.50
2018-12-16T01:10:25.643Z,4.50
2018-12-16T01:12:54.496Z,4.50
2018-12-16T01:15:23.298Z,4.50
2018-12-16T01:17:52.108Z,4.50
2018-12-16T01:20:20.901Z,4.50
2018-12-16T01:22:49.889Z,4.50
2018-12-16T01:25:18.716Z,4.50
2018-12-16T01:27:47.569Z,4.50
2018-12-16T01:30:16.372Z,4.50
2018-12-16T01:32:45.169Z,4.50
2018-12-16T01:35:14.016Z,4.40
2018-12-16T01:37:42.839Z,4.40
2018-12-16T01:40:11.684Z,4.40
2018-12-16T01:42:40.530Z,4.40
2018-12-16T01:45:09.390Z,4.40
2018-12-16T01:47:38.216Z,4.40
2018-12-16T01:50:07.020Z,4.30
2018-12-16T01:52:35.858Z,4.30
2018-12-16T01:55:04.875Z,4.30
2018-12-16T01:57:33.747Z,4.30
2018-12-16T02:00:02.704Z,4.30
2018-12-16T02:02:33.544Z,4.30
2018-12-16T02:05:02.567Z,4.30
2018-12-16T02:07:34.383Z,4.30
2018-12-16T02:10:03.652Z,4.30
2018-12-16T02:12:32.717Z,4.30
2018-12-16T02:15:01.532Z,4.30
2018-12-16T02:17:30.668Z,4.30
2018-12-16T02:19:59.520Z,4.30
2018-12-16T02:22:28.335Z,4.20
2018-12-16T02:24:57.193Z,4.20
2018-12-16T02:27:26.118Z,4.20
2018-12-16T02:29:54.921Z,4.20
2018-12-16T02:32:23.717Z,4.20
2018-12-16T02:34:52.524Z,4.20
2018-12-16T02:37:21.348Z,4.20
2018-12-16T02:39:50.139Z,4.10
2018-12-16T02:42:18.997Z,4.10
2018-12-16T02:44:47.853Z,4.10
2018-12-16T02:47:16.705Z,4.10
2018-12-16T02:49:45.585Z,4.10
2018-12-16T02:52:14.438Z,4.00
2018-12-16T02:54:43.268Z,4.00
2018-12-16T02:57:12.088Z,4.00
2018-12-16T02:59:40.873Z,4.00
2018-12-16T03:02:09.709Z,3.90
2018-12-16T03:04:38.588Z,3.90
2018-12-16T03:07:07.453Z,3.90
2018-12-16T03:09:37.740Z,3.90
2018-12-16T03:12:06.539Z,3.90
2018-12-16T03:14:36.317Z,3.80
2018-12-16T03:17:05.168Z,3.80
2018-12-16T03:19:33.992Z,3.80
2018-12-16T03:22:02.862Z,3.80
2018-12-16T03:24:31.660Z,3.80
2018-12-16T03:27:00.960Z,3.80
2018-12-16T03:29:29.760Z,3.80
2018-12-16T03:31:58.579Z,3.80
2018-12-16T03:34:27.413Z,3.70
2018-12-16T03:36:56.272Z,3.70
2018-12-16T03:39:25.060Z,3.70
2018-12-16T03:41:56.111Z,3.70
2018-12-16T03:44:24.900Z,3.70
2018-12-16T03:46:54.320Z,3.70
2018-12-16T03:49:23.755Z,3.70
2018-12-16T03:51:52.537Z,3.80
2018-12-16T03:54:21.368Z,3.80
2018-12-16T03:56:50.248Z,3.70
2018-12-16T03:59:19.724Z,3.70
2018-12-16T04:01:54.501Z,3.70
2018-12-16T04:04:23.540Z,3.70
2018-12-16T04:06:52.348Z,3.80
2018-12-16T04:09:21.301Z,3.70
2018-12-16T04:11:50.283Z,3.80
2018-12-16T04:14:19.124Z,3.80
2018-12-16T04:16:49.992Z,3.80
2018-12-16T04:19:18.827Z,3.80
2018-12-16T04:21:47.631Z,3.80
2018-12-16T04:24:16.651Z,3.70
2018-12-16T04:26:45.476Z,3.70
2018-12-16T04:29:14.772Z,3.70
2018-12-16T04:31:43.603Z,3.70
2018-12-16T04:34:12.408Z,3.70
2018-12-16T04:36:41.200Z,3.70
2018-12-16T04:39:10.041Z,3.70
2018-12-16T04:41:38.824Z,3.60
2018-12-16T04:44:07.666Z,3.60
2018-12-16T04:46:36.508Z,3.60
2018-12-16T04:49:05.310Z,3.60
2018-12-16T04:51:34.104Z,3.60
2018-12-16T04:54:02.916Z,3.60
2018-12-16T04:56:31.762Z,3.50
2018-12-16T04:59:01.724Z,3.50
2018-12-16T05:01:30.520Z,3.50
2018-12-16T05:03:59.358Z,3.50
2018-12-16T05:06:29.150Z,3.50
2018-12-16T05:08:57.968Z,3.50
2018-12-16T05:11:26.763Z,3.50
2018-12-16T05:13:55.571Z,3.50
2018-12-16T05:16:24.359Z,3.50
2018-12-16T05:18:53.164Z,3.50
2018-12-16T05:21:21.972Z,3.50
2018-12-16T05:23:50.805Z,3.40
2018-12-16T05:26:19.800Z,3.40
2018-12-16T05:28:48.573Z,3.40
2018-12-16T05:31:17.416Z,3.40
2018-12-16T05:33:46.207Z,3.40
2018-12-16T05:36:14.995Z,3.40
2018-12-16T05:38:43.798Z,3.40
2018-12-16T05:41:12.623Z,3.40
2018-12-16T05:43:41.560Z,3.40
2018-12-16T05:46:10.432Z,3.40
2018-12-16T05:48:39.227Z,3.40
2018-12-16T05:51:08.056Z,3.40
2018-12-16T05:53:36.895Z,3.40
2018-12-16T05:56:05.852Z,3.40
2018-12-16T05:58:37.684Z,3.40
2018-12-16T06:01:06.632Z,3.40
2018-12-16T06:03:35.522Z,3.40
2018-12-16T06:06:04.331Z,3.40
2018-12-16T06:08:33.120Z,3.40
2018-12-16T06:11:01.980Z,3.40
2018-12-16T06:13:30.868Z,3.40
2018-12-16T06:15:59.671Z,3.40
2018-12-16T06:18:28.473Z,3.40
2018-12-16T06:20:58.532Z,3.40
2018-12-16T06:23:27.347Z,3.50
2018-12-16T06:25:56.152Z,3.50
2018-12-16T06:28:24.992Z,3.50
2018-12-16T06:30:53.997Z,3.50
2018-12-16T06:33:22.787Z,3.50
2018-12-16T06:35:51.624Z,3.50
2018-12-16T06:38:20.451Z,3.60
2018-12-16T06:40:49.249Z,3.60
2018-12-16T06:43:18.096Z,3.70
2018-12-16T06:45:47.079Z,3.70
2018-12-16T06:48:17.462Z,3.90
2018-12-16T06:50:46.660Z,4.00
2018-12-16T06:53:15.451Z,4.20
2018-12-16T06:55:44.907Z,4.30
2018-12-16T06:58:13.717Z,4.40
2018-12-16T07:00:42.533Z,4.60
2018-12-16T07:03:11.315Z,4.70
2018-12-16T07:05:40.164Z,4.90
2018-12-16T07:08:09.056Z,5.10
2018-12-16T07:10:37.843Z,5.20
2018-12-16T07:13:06.663Z,5.40
2018-12-16T07:15:35.435Z,5.60
2018-12-16T07:18:04.265Z,5.70
2018-12-16T07:20:33.095Z,5.90
2018-12-16T07:23:01.890Z,6.00
2018-12-16T07:25:30.673Z,6.20
2018-12-16T07:27:59.521Z,6.40
2018-12-16T07:30:28.339Z,6.50
2018-12-16T07:32:57.226Z,6.70
2018-12-16T07:35:26.511Z,6.80
2018-12-16T07:37:55.542Z,6.90
2018-12-16T07:40:24.356Z,7.10
2018-12-16T07:42:56.162Z,7.20
2018-12-16T07:45:24.998Z,7.40
2018-12-16T07:47:54.284Z,7.50
2018-12-16T07:50:23.593Z,7.60
2018-12-16T07:52:52.403Z,7.80
2018-12-16T07:55:21.286Z,7.90
2018-12-16T07:57:51.102Z,8.10
2018-12-16T08:00:19.932Z,8.20
2018-12-16T08:02:48.720Z,8.30
2018-12-16T08:05:17.597Z,8.40
2018-12-16T08:07:46.385Z,8.60
2018-12-16T08:10:15.204Z,8.60
2018-12-16T08:12:44.025Z,8.70
2018-12-16T08:15:12.952Z,9.10
2018-12-16T08:17:41.940Z,9.10
2018-12-16T08:20:10.984Z,9.30
2018-12-16T08:22:39.775Z,9.40
2018-12-16T08:25:08.682Z,9.50
2018-12-16T08:27:37.548Z,9.60
2018-12-16T08:30:07.688Z,9.60
2018-12-16T08:32:36.820Z,9.70
2018-12-16T08:35:06.161Z,9.80
2018-12-16T08:37:34.981Z,9.80
2018-12-16T08:40:04.722Z,10.00
2018-12-16T08:42:33.671Z,10.00
2018-12-16T08:45:04.667Z,10.10
2018-12-16T08:47:33.641Z,10.20
2018-12-16T08:50:02.456Z,10.20
2018-12-16T08:55:00.523Z,10.40
2018-12-16T08:57:29.537Z,10.50
2018-12-16T08:59:58.692Z,10.40
2018-12-16T09:02:27.804Z,10.40
2018-12-16T09:04:57.205Z,10.50
2018-12-16T09:07:26.452Z,10.50
2018-12-16T09:09:55.266Z,10.60
2018-12-16T09:12:24.123Z,10.70
2018-12-16T09:14:53.076Z,10.80
2018-12-16T09:17:22.267Z,10.80
2018-12-16T09:19:51.389Z,10.80
2018-12-16T09:22:20.568Z,10.90
2018-12-16T09:24:49.457Z,11.00
2018-12-16T09:27:18.284Z,11.00
2018-12-16T09:29:47.303Z,11.00
2018-12-16T09:32:16.949Z,11.10
2018-12-16T09:34:45.905Z,11.10
2018-12-16T09:37:14.743Z,11.00
2018-12-16T09:39:43.589Z,10.90
2018-12-16T09:42:12.431Z,10.90
2018-12-16T09:44:41.704Z,10.70
2018-12-16T09:47:10.614Z,10.40
2018-12-16T09:49:39.560Z,10.20
2018-12-16T09:52:08.367Z,10.10
2018-12-16T09:54:44.003Z,10.00
2018-12-16T09:57:08.109Z,10.00
2018-12-16T09:59:36.998Z,10.00
2018-12-16T10:02:06.072Z,10.10
2018-12-16T10:04:34.924Z,10.00
2018-12-16T10:07:03.797Z,10.10
2018-12-16T10:09:32.657Z,10.10
2018-12-16T10:12:01.487Z,10.20
2018-12-16T10:14:30.308Z,10.10
2018-12-16T10:16:59.095Z,10.20
2018-12-16T10:19:28.716Z,10.20
2018-12-16T10:21:57.543Z,10.20
2018-12-16T10:24:26.647Z,10.20
2018-12-16T10:26:55.471Z,10.20
2018-12-16T10:29:24.280Z,10.20
2018-12-16T10:31:53.609Z,10.10
2018-12-16T10:34:23.099Z,10.00
2018-12-16T10:36:51.984Z,10.00
2018-12-16T10:39:20.808Z,10.00
2018-12-16T10:41:49.604Z,10.00
2018-12-16T10:44:18.975Z,10.00
2018-12-16T10:46:48.000Z,10.10
2018-12-16T10:49:16.908Z,10.10
2018-12-16T10:51:46.257Z,10.10
2018-12-16T10:54:15.375Z,10.20
2018-12-16T10:56:44.508Z,10.20
2018-12-16T10:59:13.511Z,10.20
2018-12-16T11:01:43.736Z,10.20
2018-12-16T11:04:12.790Z,10.30
2018-12-16T11:06:42.119Z,10.20
2018-12-16T11:09:11.672Z,10.20
2018-12-16T11:11:40.740Z,10.20
2018-12-16T11:14:10.704Z,10.20
2018-12-16T11:16:39.995Z,10.10
2018-12-16T11:19:09.632Z,10.10
2018-12-16T11:21:39.539Z,10.10
2018-12-16T11:24:09.692Z,10.00
2018-12-16T11:26:39.727Z,10.00
2018-12-16T11:29:09.308Z,10.00
2018-12-16T11:31:39.747Z,10.10
2018-12-16T11:34:09.659Z,10.00
2018-12-16T11:36:39.849Z,10.10
2018-12-16T11:39:10.173Z,10.10
2018-12-16T11:41:40.124Z,10.10
2018-12-16T11:44:10.791Z,10.10
2018-12-16T11:46:40.582Z,10.00
2018-12-16T11:49:10.603Z,10.00
2018-12-16T11:51:40.223Z,10.00
2018-12-16T11:54:10.065Z,10.00
2018-12-16T11:56:40.076Z,10.00
2018-12-16T11:59:09.570Z,10.10
2018-12-16T12:01:39.428Z,10.10
2018-12-16T12:04:11.258Z,10.10
2018-12-16T12:06:40.323Z,10.10
2018-12-16T12:09:09.388Z,10.20
2018-12-16T12:11:39.272Z,10.20
2018-12-16T12:14:09.667Z,10.20
2018-12-16T12:16:39.222Z,10.30
2018-12-16T12:19:08.894Z,10.20
2018-12-16T12:21:38.770Z,10.20
2018-12-16T12:24:08.930Z,10.20
2018-12-16T12:26:38.471Z,10.20
2018-12-16T12:29:08.339Z,10.20
2018-12-16T12:31:38.039Z,10.30
2018-12-16T12:34:08.643Z,10.30
2018-12-16T12:36:38.171Z,10.30
2018-12-16T12:39:08.002Z,10.20
2018-12-16T12:41:39.955Z,10.20
2018-12-16T12:44:09.747Z,10.20
2018-12-16T12:46:38.724Z,10.20
2018-12-16T12:49:08.323Z,10.10
2018-12-16T12:51:37.363Z,10.20
2018-12-16T12:54:07.157Z,10.20
2018-12-16T12:56:36.068Z,10.20
2018-12-16T12:59:05.272Z,10.20
2018-12-16T13:01:34.399Z,10.20
2018-12-16T13:04:05.033Z,10.20
2018-12-16T13:06:33.927Z,10.20
2018-12-16T13:09:03.268Z,10.20
2018-12-16T13:11:34.195Z,10.20
2018-12-16T13:14:03.091Z,10.10
2018-12-16T13:16:31.916Z,10.10
2018-12-16T13:19:00.813Z,10.10
2018-12-16T13:21:29.666Z,10.20
2018-12-16T13:23:58.467Z,10.10
2018-12-16T13:26:30.211Z,10.20
2018-12-16T13:28:59.820Z,10.30
2018-12-16T13:31:28.785Z,10.30
2018-12-16T13:33:57.874Z,10.50
2018-12-16T13:36:30.458Z,10.60
2018-12-16T13:39:00.177Z,10.70
2018-12-16T13:41:32.873Z,10.70
2018-12-16T13:44:02.008Z,10.70
2018-12-16T13:46:31.394Z,10.70
2018-12-16T20:24:20.176Z,9.20
2018-12-16T20:26:49.368Z,9.00
2018-12-16T20:29:19.375Z,9.00
2018-12-16T20:31:48.596Z,9.20
2018-12-16T20:34:17.621Z,9.00
2018-12-16T20:36:50.543Z,8.90
2018-12-16T20:39:21.387Z,8.90
2018-12-16T20:41:50.368Z,8.90
2018-12-16T20:44:19.649Z,9.00
2018-12-16T20:46:48.640Z,8.90
2018-12-16T20:49:17.640Z,8.90
2018-12-16T20:51:46.653Z,9.00
2018-12-16T20:54:16.552Z,9.00
2018-12-16T20:56:45.572Z,9.00
2018-12-16T20:59:14.542Z,9.00
2018-12-16T21:01:44.364Z,9.00
2018-12-16T21:04:13.443Z,9.00
2018-12-16T21:06:42.461Z,9.10
2018-12-16T21:09:12.232Z,9.10
2018-12-16T21:11:49.016Z,9.10
2018-12-16T21:14:24.217Z,9.10
2018-12-16T21:16:59.670Z,9.10
2018-12-16T21:19:31.246Z,9.10
2018-12-16T21:22:00.482Z,9.10
2018-12-16T21:24:30.345Z,9.10
2018-12-16T21:26:59.690Z,9.10
2018-12-16T21:29:29.992Z,9.10
2018-12-16T21:31:59.488Z,9.10
2018-12-16T21:34:28.578Z,9.10
2018-12-16T21:36:58.919Z,9.10
2018-12-16T21:39:28.660Z,9.10
2018-12-16T21:41:58.170Z,9.10
2018-12-16T21:44:27.173Z,9.10
2018-12-16T21:46:56.498Z,9.20
2018-12-16T21:49:25.820Z,9.30
2018-12-16T21:51:55.072Z,9.50
2018-12-16T21:54:24.145Z,9.60
2018-12-16T21:56:53.654Z,9.70
2018-12-16T21:59:22.760Z,9.90
2018-12-16T22:01:51.936Z,9.90
2018-12-16T22:04:21.451Z,10.10
2018-12-16T22:06:51.547Z,10.20
2018-12-16T22:09:20.794Z,10.20
2018-12-16T22:11:51.951Z,10.30
2018-12-16T22:14:23.712Z,10.40
2018-12-16T22:16:53.241Z,10.40
2018-12-16T22:19:22.954Z,10.40
2018-12-16T22:21:51.931Z,10.40
2018-12-16T22:24:20.836Z,10.40
2018-12-16T22:26:50.085Z,10.40
2018-12-16T22:29:19.780Z,10.40
2018-12-16T22:31:48.836Z,10.40
2018-12-16T22:34:18.020Z,10.30
2018-12-16T22:36:47.003Z,10.30
2018-12-16T22:39:16.175Z,10.20
2018-12-16T22:41:45.559Z,10.20
2018-12-16T22:44:14.663Z,10.20
2018-12-16T22:46:43.632Z,10.10
2018-12-16T22:49:12.600Z,10.10
2018-12-16T22:51:41.592Z,10.00
2018-12-16T22:54:11.195Z,10.00
2018-12-16T22:56:40.203Z,10.00
2018-12-16T22:59:09.232Z,9.90
2018-12-16T23:01:39.611Z,9.90
2018-12-16T23:04:08.959Z,9.90
2018-12-16T23:06:38.567Z,9.90
2018-12-16T23:09:07.969Z,9.90
2018-12-16T23:11:39.419Z,9.80
2018-12-16T23:14:08.272Z,9.80
2018-12-16T23:16:37.610Z,9.70
2018-12-16T23:19:06.762Z,9.70
2018-12-16T23:21:36.512Z,9.70
2018-12-16T23:24:05.675Z,9.70
2018-12-16T23:26:36.038Z,10.00
2018-12-16T23:29:05.124Z,9.60
2018-12-16T23:31:34.599Z,9.60
2018-12-16T23:34:03.691Z,9.70
2018-12-16T23:36:32.700Z,9.60
2018-12-16T23:39:01.779Z,9.60
2018-12-16T23:41:32.971Z,9.60
2018-12-16T23:44:02.672Z,9.60
2018-12-16T23:46:32.694Z,9.60
2018-12-16T23:49:02.342Z,9.60
2018-12-16T23:51:32.108Z,9.60
2018-12-16T23:54:01.596Z,9.60
2018-12-16T23:56:31.016Z,9.60
2018-12-16T23:59:00.316Z,9.60
